Weather observations for the past three days for
Springfield - Abraham Lincoln Capital Airport
Metric (Imperial)
Date Time (cdt) Wind (kph) Vis. (km) Weather Sky Cond. Temperature (ºC) Relative Humidity Wind Chill (°C) Heat Index (°C) Pressure Precipitation (cm)
Air Dwpt 6 hour altimeter (cm) sea level (mb) 1 hr 3 hr 6 hr
Max. Min.
01 17:52 Calm 16.09 Fair CLR 35.6 21.1 43% 39 76.12 1014.1
01 16:52 N 6 16.09 A Few Clouds FEW085 36.7 20 38% 40 76.1 1014.0
01 15:52 Vrbl 9 16.09 Fair CLR 36.7 18.3 34% 38 76.12 1014.3
01 14:52 S 9 16.09 Fair CLR 36.1 18.9 36% 38 76.17 1014.7
01 13:52 SW 13 16.09 Fair CLR 35.6 19.4 39% 38 76.23 1015.5
01 12:52 W 11 16.09 Fair CLR 35 19.4 35 24.4 40% 37 76.25 1015.9
01 11:52 W 13 16.09 Fair CLR 33.9 20 44% 36 76.28 1016.4
01 10:52 W 15 16.09 Fair CLR 32.8 19.4 45% 35 76.3 1016.6
01 09:52 W 17 16.09 Fair CLR 30.6 20 53% 33 76.3 1016.4
01 08:52 SW 11 16.09 Fair CLR 27.8 20 63% 29 76.3 1016.6
01 07:52 SW 13 16.09 Fair CLR 25.6 20 71% 27 76.28 1016.3
01 06:52 SW 9 16.09 Fair CLR 23.9 20 26.7 23.9 79% 24 76.25 1015.9
01 05:52 SW 9 16.09 Fair CLR 24.4 20 77% 25 76.2 1015.2
01 04:52 SW 11 16.09 Fair CLR 25 20 74% 26 76.2 1015.2
01 03:52 SW 9 16.09 Fair CLR 25 20.6 77% 26 76.17 1014.9
01 02:52 SW 7 16.09 Fair CLR 25.6 20.6 74% 27 76.17 1015.0
01 01:52 SW 9 16.09 Fair CLR 26.1 20.6 72% 28 76.17 1015.0
01 00:52 S 9 16.09 Fair CLR 26.7 20.6 32.8 26.7 69% 28 76.17 1014.9
31 23:52 S 15 16.09 Fair CLR 27.2 20.6 67% 29 76.17 1014.8
31 22:52 S 17 16.09 Fair CLR 28.3 20.6 63% 30 76.17 1014.7
31 21:52 S 17 G 30 16.09 Fair CLR 29.4 20 57% 31 76.15 1014.7
31 20:52 S 15 G 28 16.09 Fair CLR 30.6 20 53% 33 76.12 1014.2
31 19:52 S 11 16.09 Fair CLR 30.6 20 53% 33 76.07 1013.5
31 18:52 S 15 16.09 Fair CLR 32.8 20 36.1 32.8 47% 35 76.05 1013.2
31 17:52 S 19 G 33 16.09 Fair CLR 34.4 19.4 41% 36 76.07 1013.4
31 16:52 SW 13 G 31 16.09 Fair CLR 35.6 19.4 39% 38 76.07 1013.5
31 15:52 SW 17 G 33 16.09 Fair CLR 35.6 19.4 39% 38 76.07 1013.5
31 14:52 S 17 G 26 16.09 Fair CLR 35.6 19.4 39% 38 76.1 1014.0
31 13:52 S 13 16.09 Fair CLR 35 19.4 40% 37 76.15 1014.5
31 12:52 Vrbl 11 G 30 16.09 Fair CLR 33.9 19.4 33.9 22.2 42% 36 76.2 1015.2
31 11:52 S 19 G 31 16.09 Fair CLR 33.3 18.9 43% 35 76.23 1015.6
31 10:52 SW 15 16.09 Fair CLR 31.1 17.8 45% 32 76.25 1015.9
31 09:52 SW 17 G 31 16.09 Fair CLR 28.9 17.2 49% 29 76.25 1015.9
31 08:52 SW 15 16.09 Fair CLR 26.1 16.7 56% 27 76.25 1015.9
31 07:52 SW 13 16.09 Fair CLR 23.9 16.1 62% 25 76.23 1015.7
31 06:52 SW 7 16.09 Fair CLR 22.8 16.1 24.4 22.2 66% 76.2 1015.4
31 05:52 S 13 16.09 Fair CLR 22.2 16.1 68% 76.17 1014.9
31 04:52 S 11 16.09 Fair CLR 22.8 16.1 66% 76.15 1014.6
31 03:52 S 11 16.09 Fair CLR 23.3 16.1 64% 76.15 1014.6
31 02:52 S 11 16.09 Fair CLR 23.3 16.1 64% 76.15 1014.5
31 01:52 S 11 16.09 Fair CLR 23.9 16.1 62% 25 76.17 1014.8
31 00:52 S 15 16.09 Fair CLR 24.4 16.1 30.6 23.9 60% 26 76.17 1014.9
30 23:52 S 13 16.09 Fair CLR 25 16.1 58% 26 76.17 1014.9
30 22:52 S 17 16.09 Fair CLR 26.7 15.6 51% 27 76.17 1015.0
30 21:52 S 15 16.09 Fair CLR 27.2 15.6 49% 28 76.17 1014.9
30 20:52 S 13 16.09 Fair CLR 27.8 16.7 51% 28 76.15 1014.8
30 19:52 S 11 16.09 Fair CLR 27.8 17.8 55% 29 76.12 1014.4
30 18:52 S 13 16.09 Fair CLR 30.6 17.2 33.3 30.6 45% 31 76.12 1014.3
30 16:52 S 15 16.09 Fair CLR 32.8 16.1 37% 33 76.12 1014.1
30 15:52 SE 17 16.09 Fair CLR 33.3 17.2 38% 34 76.15 1014.4
30 14:52 S 19 16.09 Fair CLR 32.8 17.8 41% 34 76.17 1015.0
30 13:52 S 15 16.09 Fair CLR 32.2 17.8 42% 33 76.23 1015.6
30 12:52 S 19 16.09 Fair CLR 31.7 17.8 31.7 21.1 43% 32 76.25 1016.1
30 11:52 S 19 G 31 16.09 Fair CLR 30.6 17.2 45% 31 76.3 1016.6
30 10:52 SW 13 16.09 Fair CLR 27.8 17.2 53% 28 76.33 1016.9
30 09:52 SW 19 16.09 Fair CLR 27.2 17.2 54% 28 76.25 1016.2
30 08:52 S 15 16.09 Fair CLR 24.4 17.8 67% 25 76.28 1016.5
30 07:52 S 11 16.09 Fair CLR 21.7 17.2 76% 76.28 1016.3
30 06:52 S 11 16.09 Fair CLR 21.7 17.2 22.8 21.7 76% 76.25 1016.0
30 05:52 S 11 16.09 Fair CLR 21.7 17.2 76% 76.23 1015.6
30 04:52 S 15 16.09 Fair CLR 22.2 17.2 73% 76.2 1015.5
30 03:52 S 15 16.09 Fair CLR 22.2 17.2 73% 76.23 1015.8
30 02:52 S 15 16.09 Fair CLR 22.8 17.2 71% 76.25 1016.0
30 01:52 S 11 16.09 Fair CLR 22.2 17.2 73% 76.25 1016.2
29 23:52 S 9 16.09 Fair CLR 23.3 17.2 69% 76.3 1016.5
29 22:52 S 11 16.09 Fair CLR 22.8 17.2 71% 76.3 1016.7
29 21:52 S 11 16.09 Fair CLR 22.8 17.8 74% 76.3 1016.6
29 20:52 S 7 16.09 Fair CLR 23.3 17.8 71% 76.3 1016.7
29 19:52 S 9 16.09 Fair CLR 25 17.2 62% 26 76.25 1016.1
Date Time (cdt) Wind (kph) Vis. (km) Weather Sky Cond. Air Dwpt Max. Min. Relative Humidity Wind Chill (°C) Heat Index (°C) altimeter (cm) sea level (mb) 1 hr 3 hr 6 hr
6 hour
Temperature (ºC) Pressure Precipitation (cm)